createdAt,value
2022-08-19T00:00:23.576Z,76.47
2022-08-19T00:01:30.205Z,76.54
2022-08-19T00:02:32.414Z,76.69
2022-08-19T00:03:34.495Z,76.43
2022-08-19T00:04:37.674Z,76.38
2022-08-19T00:05:39.603Z,76.39
2022-08-19T00:06:43.277Z,76.24
2022-08-19T00:07:45.073Z,75.61
2022-08-19T00:08:46.561Z,75.84
2022-08-19T00:09:48.084Z,76.08
2022-08-19T00:10:49.569Z,76.26
2022-08-19T00:11:53.896Z,76.13
2022-08-19T00:12:55.683Z,76.07
2022-08-19T00:13:57.632Z,76.22
2022-08-19T00:14:59.155Z,76.88
2022-08-19T00:16:01.562Z,77.14
2022-08-19T00:17:04.521Z,77.03
2022-08-19T00:18:05.985Z,76.75
2022-08-19T00:19:08.166Z,77.09
2022-08-19T00:20:13.571Z,77.33
2022-08-19T00:21:15.813Z,77.11
2022-08-19T00:22:19.267Z,76.89
2022-08-19T00:23:20.887Z,77.14
2022-08-19T00:24:22.946Z,76.84
2022-08-19T00:25:30.103Z,77.08
2022-08-19T00:26:31.995Z,77.01
2022-08-19T00:27:33.873Z,76.94
2022-08-19T00:28:36.719Z,77.13
2022-08-19T00:29:38.460Z,76.98
2022-08-19T00:30:39.919Z,77.54
2022-08-19T00:31:43.141Z,77.05
2022-08-19T00:32:44.688Z,77.44
2022-08-19T00:33:46.206Z,77.29
2022-08-19T00:34:47.641Z,76.99
2022-08-19T00:35:54.620Z,76.64
2022-08-19T00:36:58.610Z,76.99
2022-08-19T00:38:00.555Z,77.13
2022-08-19T00:39:02.134Z,77.25
2022-08-19T00:40:07.135Z,77.53
2022-08-19T00:41:09.717Z,77.94
2022-08-19T00:42:11.593Z,78.13
2022-08-19T00:43:14.625Z,77.78
2022-08-19T00:44:27.217Z,78.29
2022-08-19T00:45:32.526Z,77.98
2022-08-19T00:46:39.674Z,78.18
2022-08-19T00:47:41.974Z,77.47
2022-08-19T00:48:43.439Z,77.04
2022-08-19T00:49:52.220Z,77.64
2022-08-19T00:50:55.227Z,77.62
2022-08-19T00:52:03.157Z,77.49
2022-08-19T00:53:05.242Z,77.19
2022-08-19T00:54:06.776Z,77.02
2022-08-19T00:55:12.759Z,77.18
2022-08-19T00:56:14.295Z,77.35
2022-08-19T00:57:22.141Z,76.99
2022-08-19T00:58:28.887Z,76.79
2022-08-19T01:00:00.546Z,76.91
2022-08-19T01:00:52.250Z,77.06
2022-08-19T01:01:53.820Z,76.76
2022-08-19T01:02:56.253Z,76.44
2022-08-19T01:03:58.844Z,76.79
2022-08-19T01:05:05.717Z,77.06
2022-08-19T01:06:07.822Z,77.44
2022-08-19T01:07:09.426Z,77.42
2022-08-19T01:08:20.209Z,77.43
2022-08-19T01:09:21.708Z,77.36
2022-08-19T01:10:27.570Z,77.74
2022-08-19T01:11:31.012Z,77.59
2022-08-19T01:12:32.892Z,76.96
2022-08-19T01:13:44.600Z,76.57
2022-08-19T01:14:53.422Z,77.39
2022-08-19T01:15:59.480Z,77.23
2022-08-19T01:17:01.925Z,77.52
2022-08-19T01:18:10.711Z,77.52
2022-08-19T01:19:23.390Z,77.75
2022-08-19T01:20:25.718Z,77.39
2022-08-19T01:21:45.236Z,77.44
2022-08-19T01:22:51.408Z,77.18
2022-08-19T01:23:53.014Z,77.08
2022-08-19T01:24:55.332Z,76.82
2022-08-19T01:25:57.980Z,76.93
2022-08-19T01:27:00.601Z,76.56
2022-08-19T01:28:10.720Z,77.04
2022-08-19T01:29:13.204Z,76.58
2022-08-19T01:30:32.277Z,76.49
2022-08-19T01:31:33.761Z,76.11
2022-08-19T01:32:36.235Z,76.08
2022-08-19T01:33:37.878Z,76.59
2022-08-19T01:34:39.771Z,77.19
2022-08-19T01:35:42.840Z,76.41
2022-08-19T01:36:48.154Z,76.40
2022-08-19T01:37:54.421Z,77.01
2022-08-19T01:38:56.969Z,76.62
2022-08-19T01:39:58.615Z,76.38
2022-08-19T01:41:00.837Z,76.83
2022-08-19T01:42:05.329Z,77.04
2022-08-19T01:43:07.536Z,76.62
2022-08-19T01:44:18.794Z,77.07
2022-08-19T01:45:23.998Z,77.24
2022-08-19T01:46:25.765Z,77.19
2022-08-19T01:47:27.280Z,77.01
2022-08-19T01:48:33.490Z,76.92
2022-08-19T01:49:34.981Z,76.94
2022-08-19T01:50:37.865Z,76.79
2022-08-19T01:51:40.044Z,76.53
2022-08-19T01:52:44.735Z,76.56
2022-08-19T01:53:49.230Z,76.66
2022-08-19T01:54:50.649Z,76.55
2022-08-19T01:55:52.265Z,76.75
2022-08-19T01:56:58.775Z,76.75
2022-08-19T01:58:05.053Z,76.70
2022-08-19T01:59:12.665Z,77.01
2022-08-19T02:00:17.057Z,76.75
2022-08-19T02:01:18.927Z,76.73
2022-08-19T02:02:20.477Z,77.14
2022-08-19T02:03:22.264Z,77.65
2022-08-19T02:04:24.443Z,77.73
2022-08-19T02:05:25.992Z,77.67
2022-08-19T02:06:28.745Z,77.11
2022-08-19T02:07:30.452Z,77.30
2022-08-19T02:08:34.634Z,77.57
2022-08-19T02:09:36.482Z,77.65
2022-08-19T02:10:43.288Z,77.69
2022-08-19T02:11:45.212Z,77.63
2022-08-19T02:12:51.151Z,77.90
2022-08-19T02:13:55.014Z,77.40
2022-08-19T02:14:56.369Z,77.76
2022-08-19T02:15:58.630Z,77.76
2022-08-19T02:17:02.060Z,78.19
2022-08-19T02:18:03.938Z,78.02
2022-08-19T02:19:05.571Z,78.03
2022-08-19T02:20:08.001Z,77.82
2022-08-19T02:21:09.474Z,77.83
2022-08-19T02:22:10.959Z,77.52
2022-08-19T02:23:16.056Z,77.42
2022-08-19T02:24:17.942Z,77.41
2022-08-19T02:25:19.469Z,77.00
2022-08-19T02:26:20.921Z,77.72
2022-08-19T02:27:23.425Z,77.91
2022-08-19T02:28:25.191Z,77.50
2022-08-19T02:29:26.675Z,77.75
2022-08-19T02:30:28.148Z,77.42
2022-08-19T02:31:29.747Z,76.86
2022-08-19T02:32:31.735Z,76.84
2022-08-19T02:33:33.502Z,77.03
2022-08-19T02:34:35.668Z,76.97
2022-08-19T02:35:37.135Z,76.54
2022-08-19T02:36:42.354Z,76.98
2022-08-19T02:38:03.696Z,76.98
2022-08-19T02:39:05.210Z,76.82
2022-08-19T02:40:12.174Z,76.74
2022-08-19T02:41:29.794Z,76.68
2022-08-19T02:42:32.297Z,76.39
2022-08-19T02:43:38.571Z,76.53
2022-08-19T02:44:40.018Z,76.49
2022-08-19T02:45:41.774Z,76.80
2022-08-19T02:46:45.729Z,76.74
2022-08-19T02:47:50.271Z,76.65
2022-08-19T02:48:54.337Z,76.44
2022-08-19T02:49:55.772Z,76.61
2022-08-19T02:50:57.235Z,76.37
2022-08-19T02:51:58.675Z,76.32
2022-08-19T02:53:00.622Z,76.20
2022-08-19T02:54:03.279Z,76.36
2022-08-19T02:55:05.861Z,76.55
2022-08-19T02:56:08.758Z,76.78
2022-08-19T02:57:10.573Z,77.20
2022-08-19T02:58:12.836Z,76.34
2022-08-19T02:59:14.303Z,76.29
2022-08-19T03:00:16.675Z,75.45
2022-08-19T03:01:28.475Z,75.68
2022-08-19T03:02:31.500Z,76.25
2022-08-19T03:03:33.736Z,76.51
2022-08-19T03:04:35.442Z,76.61
2022-08-19T03:05:45.956Z,76.42
2022-08-19T03:06:50.242Z,76.42
2022-08-19T03:07:52.006Z,76.60
2022-08-19T03:08:54.151Z,76.92
2022-08-19T03:09:55.655Z,76.90
2022-08-19T03:10:57.093Z,76.44
2022-08-19T03:11:58.584Z,76.62
2022-08-19T03:13:00.657Z,76.35
2022-08-19T03:14:08.618Z,76.34
2022-08-19T03:15:10.410Z,76.32
2022-08-19T03:16:13.382Z,76.48
2022-08-19T03:17:14.928Z,76.26
2022-08-19T03:18:18.144Z,75.96
2022-08-19T03:19:22.172Z,76.07
2022-08-19T03:20:23.612Z,76.48
2022-08-19T03:21:27.677Z,76.45
2022-08-19T03:22:29.722Z,76.91
2022-08-19T03:23:31.564Z,76.67
2022-08-19T03:24:33.163Z,76.83
2022-08-19T03:25:41.238Z,76.48
2022-08-19T03:26:45.794Z,76.40
2022-08-19T03:27:50.261Z,76.34
2022-08-19T03:28:57.761Z,76.91
2022-08-19T03:30:00.408Z,76.48
2022-08-19T03:31:41.657Z,76.64
2022-08-19T03:32:32.947Z,76.75
2022-08-19T03:33:35.815Z,76.12
2022-08-19T03:34:38.489Z,76.41
2022-08-19T03:35:39.939Z,76.50
2022-08-19T03:36:42.043Z,76.01
2022-08-19T03:37:43.584Z,76.44
2022-08-19T03:38:48.971Z,76.45
2022-08-19T03:39:57.901Z,76.24
2022-08-19T03:41:04.139Z,76.32
2022-08-19T03:42:33.167Z,76.18
2022-08-19T03:43:29.542Z,76.10
2022-08-19T03:44:31.268Z,76.02
2022-08-19T03:45:32.806Z,75.81
2022-08-19T03:46:34.963Z,76.13
2022-08-19T03:47:36.820Z,76.43
2022-08-19T03:48:40.635Z,76.43
2022-08-19T03:49:42.208Z,76.77
2022-08-19T03:50:43.820Z,76.83
2022-08-19T03:51:46.821Z,76.90
2022-08-19T03:52:52.219Z,77.00
2022-08-19T03:53:56.035Z,76.91
2022-08-19T03:54:57.674Z,77.15
2022-08-19T03:56:06.062Z,77.32
2022-08-19T03:57:07.726Z,77.49
2022-08-19T03:58:09.546Z,77.99
2022-08-19T03:59:15.374Z,77.65
2022-08-19T04:00:17.492Z,77.43
2022-08-19T04:01:22.018Z,77.39
2022-08-19T04:02:36.766Z,77.58
2022-08-19T04:03:39.284Z,77.20
2022-08-19T04:04:44.265Z,77.29
2022-08-19T04:05:47.647Z,77.36
2022-08-19T04:06:49.743Z,77.33
2022-08-19T04:07:51.549Z,77.72
2022-08-19T04:08:55.496Z,77.51
2022-08-19T04:09:57.218Z,77.64
2022-08-19T04:10:58.709Z,76.92
2022-08-19T04:12:03.560Z,77.42
2022-08-19T04:13:07.499Z,77.52
2022-08-19T04:14:11.687Z,77.50
2022-08-19T04:15:13.148Z,77.12
2022-08-19T04:16:15.528Z,77.28
2022-08-19T04:17:17.379Z,77.14
2022-08-19T04:18:18.895Z,77.12
2022-08-19T04:19:21.269Z,76.99
2022-08-19T04:20:22.755Z,76.70
2022-08-19T04:21:27.446Z,76.94
2022-08-19T04:22:29.215Z,77.06
2022-08-19T04:23:31.288Z,77.02
2022-08-19T04:24:34.912Z,76.98
2022-08-19T04:25:39.223Z,76.73
2022-08-19T04:26:41.648Z,76.77
2022-08-19T04:27:47.594Z,76.78
2022-08-19T04:28:50.098Z,76.72
2022-08-19T04:29:51.546Z,76.63
2022-08-19T04:30:56.729Z,76.48
2022-08-19T04:31:59.624Z,76.57
2022-08-19T04:33:01.447Z,75.96
2022-08-19T04:34:06.062Z,76.14
2022-08-19T04:35:18.595Z,76.09
2022-08-19T04:36:25.144Z,76.04
2022-08-19T04:37:33.683Z,76.03
2022-08-19T04:38:37.166Z,75.78
2022-08-19T04:39:58.661Z,76.16
2022-08-19T04:41:22.856Z,76.00
2022-08-19T04:42:40.342Z,75.96
2022-08-19T04:43:42.176Z,76.22
2022-08-19T04:44:46.389Z,76.14
2022-08-19T04:45:48.155Z,76.13
2022-08-19T04:46:51.680Z,76.46
2022-08-19T04:47:58.627Z,76.46
2022-08-19T04:49:23.199Z,76.55
2022-08-19T04:50:27.012Z,75.88
2022-08-19T04:51:29.138Z,75.98
2022-08-19T04:52:32.954Z,76.25
2022-08-19T04:53:37.977Z,76.01
2022-08-19T04:54:40.080Z,75.99
2022-08-19T04:55:43.435Z,75.88
2022-08-19T04:56:45.000Z,76.32
2022-08-19T04:57:46.766Z,76.20
2022-08-19T04:58:48.586Z,76.04
2022-08-19T04:59:50.573Z,76.44
2022-08-19T05:00:52.268Z,76.06
2022-08-19T05:01:53.779Z,76.29
2022-08-19T05:02:55.518Z,76.03
2022-08-19T05:03:58.858Z,76.20
2022-08-19T05:05:01.453Z,76.23
2022-08-19T05:06:12.299Z,75.62
2022-08-19T05:07:13.782Z,75.56
2022-08-19T05:08:30.732Z,75.76
2022-08-19T05:09:57.180Z,76.02
2022-08-19T05:10:54.818Z,76.42
2022-08-19T05:11:56.733Z,76.54
2022-08-19T05:12:58.675Z,76.37
2022-08-19T05:14:00.808Z,76.29
2022-08-19T05:15:06.684Z,76.03
2022-08-19T05:16:08.160Z,76.67
2022-08-19T05:17:26.594Z,75.40
2022-08-19T05:18:48.384Z,75.79
2022-08-19T05:20:08.087Z,75.78
2022-08-19T05:21:31.045Z,75.76
2022-08-19T05:22:38.641Z,75.34
2022-08-19T05:23:40.232Z,74.96
2022-08-19T05:25:02.401Z,75.14
2022-08-19T05:26:03.995Z,75.60
2022-08-19T05:27:06.574Z,75.50
2022-08-19T05:28:08.063Z,74.95
2022-08-19T05:29:11.173Z,73.95
2022-08-19T05:30:13.092Z,74.06
2022-08-19T05:31:14.668Z,73.98
2022-08-19T05:32:16.509Z,73.99
2022-08-19T05:33:19.224Z,74.09
2022-08-19T05:34:23.583Z,74.30
2022-08-19T05:35:25.058Z,74.29
2022-08-19T05:36:28.620Z,74.38
2022-08-19T05:37:30.144Z,74.19
2022-08-19T05:38:31.644Z,74.32
2022-08-19T05:39:36.886Z,74.38
2022-08-19T05:40:40.092Z,74.36
2022-08-19T05:41:47.294Z,74.28
2022-08-19T05:42:55.243Z,73.81
2022-08-19T05:43:58.757Z,73.99
2022-08-19T05:45:00.243Z,74.09
2022-08-19T05:46:01.756Z,74.31
2022-08-19T05:47:06.698Z,73.96
2022-08-19T05:48:08.328Z,74.03
2022-08-19T05:49:10.025Z,73.96
2022-08-19T05:50:11.569Z,74.31
2022-08-19T05:51:13.163Z,74.57
2022-08-19T05:52:25.833Z,74.60
2022-08-19T05:53:27.864Z,74.95
2022-08-19T05:54:29.714Z,74.99
2022-08-19T05:55:31.540Z,75.32
2022-08-19T05:56:33.240Z,75.11
2022-08-19T05:57:34.684Z,74.76
2022-08-19T05:58:37.946Z,74.74
2022-08-19T05:59:39.430Z,75.00
2022-08-19T06:00:43.372Z,74.94
2022-08-19T06:01:46.882Z,74.68
2022-08-19T06:02:48.509Z,75.13
2022-08-19T06:03:50.132Z,75.05
2022-08-19T06:04:51.593Z,74.99
2022-08-19T06:05:54.163Z,74.49
2022-08-19T06:06:55.815Z,74.52
2022-08-19T06:07:57.822Z,74.21
2022-08-19T06:09:00.082Z,74.29
2022-08-19T06:10:01.663Z,74.05
2022-08-19T06:11:18.204Z,74.29
2022-08-19T06:12:19.665Z,74.46
2022-08-19T06:13:21.240Z,74.31
2022-08-19T06:14:27.782Z,73.53
2022-08-19T06:15:29.750Z,72.93
2022-08-19T06:16:32.720Z,73.40
2022-08-19T06:17:35.815Z,73.53
2022-08-19T06:18:37.326Z,73.40
2022-08-19T06:19:40.764Z,73.53
2022-08-19T06:20:55.465Z,73.15
2022-08-19T06:21:59.466Z,73.07
2022-08-19T06:23:01.208Z,73.19
2022-08-19T06:24:03.377Z,72.93
2022-08-19T06:25:05.384Z,72.77
2022-08-19T06:26:07.005Z,72.51
2022-08-19T06:27:08.975Z,72.65
2022-08-19T06:28:15.302Z,72.64
2022-08-19T06:29:23.686Z,72.83
2022-08-19T06:30:25.390Z,73.09
2022-08-19T06:31:29.715Z,72.74
2022-08-19T06:32:31.402Z,72.66
2022-08-19T06:33:32.865Z,73.14
2022-08-19T06:34:35.477Z,72.94
2022-08-19T06:35:41.051Z,72.70
2022-08-19T06:36:45.664Z,72.72
2022-08-19T06:37:48.048Z,72.88
2022-08-19T06:38:49.598Z,72.71
2022-08-19T06:39:51.689Z,72.63
2022-08-19T06:41:02.206Z,72.22
2022-08-19T06:42:12.462Z,72.55
2022-08-19T06:43:16.877Z,72.64
2022-08-19T06:44:23.004Z,72.71
2022-08-19T06:45:35.340Z,71.84
2022-08-19T06:46:38.678Z,71.17
2022-08-19T06:47:44.808Z,71.65
2022-08-19T06:48:47.263Z,72.28
2022-08-19T06:49:49.093Z,73.13
2022-08-19T06:50:52.477Z,73.49
2022-08-19T06:51:54.361Z,73.13
2022-08-19T06:52:56.160Z,72.91
2022-08-19T06:53:58.014Z,73.00
2022-08-19T06:55:00.201Z,73.28
2022-08-19T06:56:03.435Z,72.95
2022-08-19T06:57:05.217Z,72.62
2022-08-19T06:58:06.749Z,72.21
2022-08-19T06:59:12.319Z,71.66
2022-08-19T07:00:15.040Z,71.38
2022-08-19T07:01:16.645Z,70.93
2022-08-19T07:02:19.353Z,70.85
2022-08-19T07:03:22.186Z,70.87
2022-08-19T07:04:30.709Z,70.97
2022-08-19T07:05:32.296Z,70.82
2022-08-19T07:06:44.151Z,70.96
2022-08-19T07:07:47.660Z,71.92
2022-08-19T07:08:49.622Z,72.36
2022-08-19T07:10:00.042Z,72.26
2022-08-19T07:11:09.382Z,71.75
2022-08-19T07:12:15.752Z,72.24
2022-08-19T07:13:17.462Z,72.44
2022-08-19T07:14:22.117Z,72.73
2022-08-19T07:15:24.218Z,72.90
2022-08-19T07:16:28.986Z,72.55
2022-08-19T07:17:31.295Z,72.94
2022-08-19T07:18:33.239Z,72.93
2022-08-19T07:19:36.558Z,72.84
2022-08-19T07:20:38.011Z,72.67
2022-08-19T07:21:40.738Z,72.76
2022-08-19T07:22:42.251Z,72.93
2022-08-19T07:23:44.680Z,73.11
2022-08-19T07:24:51.165Z,73.04
2022-08-19T07:25:53.466Z,72.97
2022-08-19T07:27:02.464Z,73.45
2022-08-19T07:28:03.981Z,73.29
2022-08-19T07:29:06.520Z,73.35
2022-08-19T07:30:11.621Z,73.24
2022-08-19T07:31:22.762Z,72.94
2022-08-19T07:32:28.537Z,73.00
2022-08-19T07:33:33.362Z,73.28
2022-08-19T07:34:38.457Z,73.55
2022-08-19T07:35:41.865Z,73.65
2022-08-19T07:36:44.820Z,73.47
2022-08-19T07:37:46.957Z,73.99
2022-08-19T07:38:51.126Z,74.00
2022-08-19T07:39:52.671Z,73.66
2022-08-19T07:40:54.904Z,73.12
2022-08-19T07:41:58.811Z,73.17
2022-08-19T07:43:00.365Z,73.38
2022-08-19T07:44:04.845Z,73.28
2022-08-19T07:45:08.263Z,73.29
2022-08-19T07:47:47.395Z,72.85
2022-08-19T07:48:41.808Z,73.08
2022-08-19T07:49:43.705Z,72.93
2022-08-19T07:50:45.443Z,73.57
2022-08-19T07:52:03.158Z,73.28
2022-08-19T07:53:04.695Z,73.48
2022-08-19T07:54:06.214Z,73.27
2022-08-19T07:55:40.139Z,73.03
2022-08-19T07:56:31.644Z,72.45
2022-08-19T07:57:33.203Z,72.45
2022-08-19T07:58:37.264Z,72.87
2022-08-19T07:59:38.793Z,73.10
2022-08-19T08:00:41.624Z,72.76
2022-08-19T08:01:43.070Z,72.51
2022-08-19T08:02:44.918Z,72.79
2022-08-19T08:04:07.394Z,72.79
2022-08-19T08:05:29.333Z,72.02
2022-08-19T08:06:49.499Z,72.14
2022-08-19T08:08:09.675Z,72.45
2022-08-19T08:09:12.479Z,72.13
2022-08-19T08:10:20.787Z,71.92
2022-08-19T08:11:23.974Z,71.84
2022-08-19T08:12:34.747Z,71.99
2022-08-19T08:13:36.634Z,71.77
2022-08-19T08:14:45.221Z,72.02
2022-08-19T08:15:48.584Z,71.91
2022-08-19T08:16:54.149Z,71.75
2022-08-19T08:17:55.642Z,71.54
2022-08-19T08:18:57.397Z,71.36
2022-08-19T08:19:59.308Z,71.86
2022-08-19T08:21:00.937Z,72.04
2022-08-19T08:22:03.908Z,71.86
2022-08-19T08:23:24.723Z,71.68
2022-08-19T08:24:31.858Z,71.50
2022-08-19T08:25:34.402Z,71.91
2022-08-19T08:26:36.880Z,71.80
2022-08-19T08:27:41.967Z,71.73
2022-08-19T08:28:48.004Z,70.91
2022-08-19T08:29:51.467Z,70.75
2022-08-19T08:30:53.372Z,71.18
2022-08-19T08:31:59.612Z,71.12
2022-08-19T08:33:02.531Z,71.31
2022-08-19T08:34:04.453Z,71.00
2022-08-19T08:35:07.911Z,70.95
2022-08-19T08:36:10.125Z,71.04
2022-08-19T08:37:11.608Z,70.96
2022-08-19T08:38:14.324Z,70.64
2022-08-19T08:39:18.376Z,71.16
2022-08-19T08:40:28.829Z,71.14
2022-08-19T08:41:59.394Z,71.28
2022-08-19T08:43:10.750Z,71.59
2022-08-19T08:44:21.880Z,71.43
2022-08-19T08:45:24.970Z,71.09
2022-08-19T08:46:52.838Z,70.96
2022-08-19T08:48:02.770Z,71.31
2022-08-19T08:49:17.834Z,70.95
2022-08-19T08:50:20.794Z,70.82
2022-08-19T08:51:35.201Z,71.01
2022-08-19T08:52:49.833Z,70.85
2022-08-19T08:53:56.161Z,70.97
2022-08-19T08:55:01.185Z,71.22
2022-08-19T08:56:06.119Z,71.37
2022-08-19T08:57:18.952Z,70.89
2022-08-19T08:58:29.464Z,71.18
2022-08-19T08:59:35.278Z,71.43
2022-08-19T09:00:43.859Z,71.51
2022-08-19T09:01:45.824Z,70.84
2022-08-19T09:02:50.961Z,70.92
2022-08-19T09:03:53.400Z,71.07
2022-08-19T09:04:55.735Z,70.90
2022-08-19T09:06:15.754Z,70.86
2022-08-19T09:07:46.887Z,71.23
2022-08-19T09:09:11.893Z,70.62
2022-08-19T09:10:29.541Z,71.00
2022-08-19T09:11:44.519Z,70.68
2022-08-19T09:13:09.713Z,70.70
2022-08-19T09:14:50.341Z,71.02
2022-08-19T09:16:02.113Z,70.66
2022-08-19T09:17:04.399Z,70.48
2022-08-19T09:18:07.495Z,70.12
2022-08-19T09:19:09.883Z,70.35
2022-08-19T09:20:11.488Z,70.54
2022-08-19T09:21:13.569Z,71.06
2022-08-19T09:22:15.087Z,71.49
2022-08-19T09:23:27.376Z,71.62
2022-08-19T09:24:31.129Z,71.65
2022-08-19T09:25:35.330Z,71.33
2022-08-19T09:26:52.587Z,71.19
2022-08-19T09:28:02.598Z,71.40
2022-08-19T09:29:06.630Z,71.98
2022-08-19T09:30:10.093Z,71.90
2022-08-19T09:31:16.175Z,71.99
2022-08-19T09:32:26.697Z,71.94
2022-08-19T09:33:28.477Z,71.73
2022-08-19T09:34:33.113Z,72.00
2022-08-19T09:35:50.194Z,71.99
2022-08-19T09:36:56.523Z,72.14
2022-08-19T09:38:00.091Z,71.72
2022-08-19T09:39:01.944Z,71.74
2022-08-19T09:40:05.307Z,71.57
2022-08-19T09:41:09.551Z,71.47
2022-08-19T09:42:16.516Z,71.20
2022-08-19T09:43:44.624Z,71.35
2022-08-19T09:44:49.500Z,70.96
2022-08-19T09:45:50.951Z,71.26
2022-08-19T09:46:52.443Z,70.76
2022-08-19T09:47:55.318Z,71.14
2022-08-19T09:49:06.014Z,70.90
2022-08-19T09:50:12.101Z,71.08
2022-08-19T09:51:24.989Z,71.36
2022-08-19T09:52:32.705Z,71.04
2022-08-19T09:53:38.808Z,70.58
2022-08-19T09:54:46.017Z,70.82
2022-08-19T09:55:56.333Z,71.07
2022-08-19T09:57:01.360Z,71.22
2022-08-19T09:58:06.624Z,71.05
2022-08-19T09:59:08.265Z,70.66
2022-08-19T10:00:10.911Z,70.58
2022-08-19T10:01:29.278Z,70.61
2022-08-19T10:02:30.989Z,70.61
2022-08-19T10:03:35.377Z,71.12
2022-08-19T10:04:55.466Z,71.09
2022-08-19T10:05:58.820Z,71.04
2022-08-19T10:07:00.317Z,70.80
2022-08-19T10:08:02.029Z,70.89
2022-08-19T10:09:09.169Z,70.62
2022-08-19T10:10:11.161Z,70.83
2022-08-19T10:11:27.802Z,70.56
2022-08-19T10:12:35.480Z,70.87
2022-08-19T10:13:37.922Z,70.70
2022-08-19T10:14:40.376Z,70.60
2022-08-19T10:15:47.665Z,70.63
2022-08-19T10:16:50.399Z,70.35
2022-08-19T10:17:55.483Z,70.26
2022-08-19T10:18:59.020Z,70.40
2022-08-19T10:20:01.051Z,70.16
2022-08-19T10:21:23.762Z,70.27
2022-08-19T10:22:27.160Z,69.75
2022-08-19T10:23:33.635Z,69.92
2022-08-19T10:24:35.671Z,70.06
2022-08-19T10:25:38.450Z,69.80
2022-08-19T10:26:43.039Z,69.69
2022-08-19T10:27:48.216Z,69.80
2022-08-19T10:28:53.798Z,69.83
2022-08-19T10:29:56.268Z,69.72
2022-08-19T10:31:08.630Z,69.39
2022-08-19T10:32:11.010Z,69.37
2022-08-19T10:33:12.939Z,68.76
2022-08-19T10:34:27.038Z,68.58
2022-08-19T10:35:30.463Z,68.53
2022-08-19T10:36:36.217Z,68.94
2022-08-19T10:38:02.463Z,69.02
2022-08-19T10:39:08.590Z,68.71
2022-08-19T10:40:12.338Z,68.58
2022-08-19T10:41:25.682Z,68.40
2022-08-19T10:42:27.154Z,68.49
2022-08-19T10:43:28.621Z,68.52
2022-08-19T10:44:32.324Z,68.49
2022-08-19T10:45:34.228Z,68.59
2022-08-19T10:46:48.717Z,68.35
2022-08-19T10:47:50.498Z,68.10
2022-08-19T10:48:53.160Z,68.73
2022-08-19T10:50:14.322Z,68.62
2022-08-19T10:51:51.850Z,68.52
2022-08-19T10:52:53.342Z,68.60
2022-08-19T10:53:59.156Z,68.91
2022-08-19T10:55:25.697Z,68.66
2022-08-19T10:56:50.537Z,68.70
2022-08-19T10:58:02.140Z,68.97
2022-08-19T10:59:04.876Z,68.73
2022-08-19T11:00:06.995Z,69.33
2022-08-19T11:01:08.547Z,69.40
2022-08-19T11:02:12.504Z,69.30
2022-08-19T11:03:14.025Z,69.47
2022-08-19T11:04:18.526Z,68.67
2022-08-19T11:05:20.082Z,68.54
2022-08-19T11:06:21.865Z,68.25
2022-08-19T11:07:26.126Z,69.16
2022-08-19T11:08:28.592Z,69.67
2022-08-19T11:09:34.039Z,69.27
2022-08-19T11:10:36.132Z,69.35
2022-08-19T11:11:41.261Z,69.16
2022-08-19T11:12:42.833Z,69.08
2022-08-19T11:13:46.319Z,69.34
2022-08-19T11:14:51.260Z,69.24
2022-08-19T11:16:05.305Z,69.46
2022-08-19T11:17:09.150Z,69.64
2022-08-19T11:18:13.203Z,69.49
2022-08-19T11:19:17.990Z,69.12
2022-08-19T11:20:19.506Z,69.10
2022-08-19T11:21:24.088Z,69.33
2022-08-19T11:22:28.848Z,69.36
2022-08-19T11:23:39.599Z,68.97
2022-08-19T11:24:41.084Z,69.00
2022-08-19T11:25:42.630Z,68.82
2022-08-19T11:26:45.386Z,68.50
2022-08-19T11:27:47.178Z,68.51
2022-08-19T11:28:49.570Z,69.02
2022-08-19T11:29:52.000Z,68.74
2022-08-19T11:30:53.620Z,68.63
2022-08-19T11:31:55.904Z,68.66
2022-08-19T11:32:57.489Z,68.41
2022-08-19T11:34:00.841Z,68.57
2022-08-19T11:35:02.409Z,68.32
2022-08-19T11:36:04.212Z,67.94
2022-08-19T11:37:07.136Z,67.57
2022-08-19T11:38:09.929Z,68.00
2022-08-19T11:39:13.845Z,68.34
2022-08-19T11:40:15.554Z,68.47
2022-08-19T11:41:19.969Z,68.11
2022-08-19T11:42:40.048Z,68.63
2022-08-19T11:43:41.725Z,68.49
2022-08-19T11:44:44.269Z,68.51
2022-08-19T11:45:45.792Z,68.67
2022-08-19T11:46:48.547Z,68.58
2022-08-19T11:47:50.304Z,68.72
2022-08-19T11:48:55.476Z,68.97
2022-08-19T11:49:57.194Z,68.73
2022-08-19T11:50:59.013Z,68.58
2022-08-19T11:52:00.578Z,68.95
2022-08-19T11:53:02.122Z,68.60
2022-08-19T11:54:06.397Z,68.70
2022-08-19T11:55:08.984Z,68.56
2022-08-19T11:56:10.749Z,68.99
2022-08-19T11:57:12.225Z,68.75
2022-08-19T11:58:18.909Z,68.96
2022-08-19T11:59:20.553Z,68.87
2022-08-19T12:00:22.574Z,68.44
2022-08-19T12:01:26.282Z,68.39
2022-08-19T12:02:27.795Z,69.09
2022-08-19T12:03:29.418Z,69.29
2022-08-19T12:04:31.023Z,70.40
2022-08-19T12:05:32.827Z,71.55
2022-08-19T12:06:40.001Z,72.55
2022-08-19T12:07:43.584Z,72.89
2022-08-19T12:08:45.699Z,73.16
2022-08-19T12:09:48.603Z,73.36
2022-08-19T12:10:50.285Z,74.22
2022-08-19T12:11:51.928Z,74.76
2022-08-19T12:12:53.806Z,75.03
2022-08-19T12:14:00.667Z,75.88
2022-08-19T12:15:03.086Z,75.99
2022-08-19T12:16:13.631Z,76.17
2022-08-19T12:17:15.227Z,76.46
2022-08-19T12:18:16.770Z,77.60
2022-08-19T12:19:21.759Z,77.70
2022-08-19T12:20:25.454Z,77.46
2022-08-19T12:21:29.520Z,77.79
2022-08-19T12:22:31.021Z,77.66
2022-08-19T12:23:32.618Z,77.82
2022-08-19T12:24:35.197Z,78.06
2022-08-19T12:25:37.924Z,78.07
2022-08-19T12:26:53.756Z,77.77
2022-08-19T12:27:57.486Z,78.60
2022-08-19T12:29:00.451Z,78.34
2022-08-19T12:30:03.950Z,78.30
2022-08-19T12:31:06.581Z,78.01
2022-08-19T12:32:10.396Z,78.19
2022-08-19T12:33:14.926Z,78.25
2022-08-19T12:34:16.335Z,78.39
2022-08-19T12:35:21.063Z,78.86
2022-08-19T12:36:25.053Z,78.74
2022-08-19T12:37:26.538Z,78.60
2022-08-19T12:38:28.172Z,79.28
2022-08-19T12:39:29.672Z,79.27
2022-08-19T12:40:31.525Z,79.31
2022-08-19T12:41:33.047Z,79.36
2022-08-19T12:42:34.539Z,80.05
2022-08-19T12:43:36.799Z,79.87
2022-08-19T12:44:41.638Z,79.82
2022-08-19T12:45:44.600Z,79.63
2022-08-19T12:46:50.028Z,79.78
2022-08-19T12:47:55.726Z,79.64
2022-08-19T12:48:57.645Z,80.01
2022-08-19T12:50:00.120Z,80.18
2022-08-19T12:51:08.408Z,79.33
2022-08-19T12:52:10.158Z,79.74
2022-08-19T12:53:11.802Z,80.08
2022-08-19T12:54:13.605Z,80.41
2022-08-19T12:55:15.549Z,79.53
2022-08-19T12:56:22.293Z,80.18
2022-08-19T12:57:32.866Z,80.30
2022-08-19T12:58:35.489Z,80.33
2022-08-19T12:59:38.615Z,80.07
2022-08-19T13:00:40.658Z,80.00
2022-08-19T13:01:42.887Z,80.32
2022-08-19T13:02:46.654Z,80.71
2022-08-19T13:03:48.184Z,80.58
2022-08-19T13:04:52.554Z,80.96
2022-08-19T13:05:54.057Z,81.06
2022-08-19T13:06:55.530Z,80.95
2022-08-19T13:08:00.421Z,80.69
2022-08-19T13:09:02.006Z,80.66
2022-08-19T13:10:04.610Z,80.91
2022-08-19T13:11:19.653Z,81.07
2022-08-19T13:12:21.370Z,80.44
2022-08-19T13:13:27.035Z,80.42
2022-08-19T13:14:28.485Z,80.78
2022-08-19T13:15:32.231Z,81.09
2022-08-19T13:16:34.273Z,81.15
2022-08-19T13:17:36.788Z,81.06
2022-08-19T13:18:39.641Z,81.72
2022-08-19T13:19:41.245Z,81.76
2022-08-19T13:20:42.986Z,81.33
2022-08-19T13:22:00.211Z,81.90
2022-08-19T13:23:02.115Z,81.68
2022-08-19T13:24:04.005Z,81.76
2022-08-19T13:25:07.527Z,81.83
2022-08-19T13:26:10.843Z,82.23
2022-08-19T13:27:12.472Z,81.82
2022-08-19T13:28:13.964Z,81.86
2022-08-19T13:29:36.805Z,81.90
2022-08-19T13:30:56.993Z,81.95
2022-08-19T13:32:18.669Z,81.86
2022-08-19T13:33:20.457Z,82.12
2022-08-19T13:34:32.769Z,82.50
2022-08-19T13:35:34.327Z,83.11
2022-08-19T13:36:36.552Z,83.23
2022-08-19T13:37:43.726Z,83.42
2022-08-19T13:38:45.825Z,84.05
2022-08-19T13:39:48.363Z,84.20
2022-08-19T13:40:52.470Z,83.64
2022-08-19T13:41:54.094Z,83.96
2022-08-19T13:42:59.040Z,84.00
2022-08-19T13:44:03.797Z,83.88
2022-08-19T13:45:07.765Z,83.80
2022-08-19T13:46:14.993Z,83.56
2022-08-19T13:47:16.799Z,84.02
2022-08-19T13:48:19.273Z,83.50
2022-08-19T13:49:21.555Z,83.76
2022-08-19T13:50:27.633Z,84.02
2022-08-19T13:51:30.485Z,83.65
2022-08-19T13:52:32.100Z,83.61
2022-08-19T13:53:33.674Z,83.78
2022-08-19T13:54:35.404Z,83.62
2022-08-19T13:55:40.014Z,83.60
2022-08-19T13:56:44.077Z,83.45
2022-08-19T13:57:46.570Z,83.66